Time;durP1;ratioP1;P1;durP2;ratioP2;P2;SDS_P1;SDS_P2;PMS_P1;PMS_P2;Temp;Humidity;BMP_temperature;BMP_pressure;BME280_temperature;BME280_humidity;BME280_pressure;Samples;Min_cycle;Max_cycle;Signal;HPM_P1;HPM_P2
2023/11/12 00:01:40;;;;;;;7.97;7.53;;;7.20;1.00;;;;;;4929182;29;20485;-78
2023/11/12 00:04:09;;;;;;;7.60;7.20;;;7.10;1.00;;;;;;4923818;29;20838;-79
2023/11/12 00:06:41;;;;;;;8.40;7.90;;;7.10;1.00;;;;;;4920322;29;20493;-80
2023/11/12 00:09:10;;;;;;;7.33;6.97;;;7.00;1.00;;;;;;4923737;29;20465;-80
2023/11/12 00:11:39;;;;;;;6.83;6.63;;;7.00;1.00;;;;;;4926003;29;20981;-79
2023/11/12 00:14:07;;;;;;;6.57;6.27;;;7.10;1.00;;;;;;4925568;29;20457;-79
2023/11/12 00:16:36;;;;;;;7.83;7.43;;;7.10;1.00;;;;;;4922709;29;20482;-80
2023/11/12 00:19:04;;;;;;;7.10;6.90;;;7.00;1.00;;;;;;4925606;29;20465;-79
2023/11/12 00:21:33;;;;;;;6.80;6.60;;;7.00;1.00;;;;;;4923563;29;20506;-79
2023/11/12 00:24:02;;;;;;;7.90;7.50;;;7.10;1.00;;;;;;4926844;29;20455;-79
2023/11/12 00:26:31;;;;;;;7.03;6.83;;;7.10;1.00;;;;;;4923093;29;20473;-80
2023/11/12 00:29:00;;;;;;;6.60;6.40;;;7.10;1.00;;;;;;4924834;29;20457;-81
2023/11/12 00:31:28;;;;;;;6.37;6.17;;;7.10;1.00;;;;;;4923474;29;21223;-81
2023/11/12 00:33:58;;;;;;;6.60;6.40;;;7.00;1.00;;;;;;4921282;29;20461;-82
2023/11/12 00:36:26;;;;;;;6.60;6.40;;;7.10;1.00;;;;;;4920106;29;20492;-79
2023/11/12 00:38:55;;;;;;;6.23;6.10;;;7.00;1.00;;;;;;4924379;29;20822;-79
2023/11/12 00:41:25;;;;;;;7.10;6.90;;;7.00;1.00;;;;;;4924988;29;20638;-82
2023/11/12 00:43:56;;;;;;;6.80;6.60;;;7.10;1.00;;;;;;4930718;29;20464;-79
2023/11/12 00:46:26;;;;;;;7.27;6.87;;;7.00;1.00;;;;;;4925393;29;20517;-79
2023/11/12 00:48:55;;;;;;;7.10;6.90;;;7.00;1.00;;;;;;4930408;29;21127;-80
2023/11/12 00:51:23;;;;;;;7.00;6.80;;;7.10;1.00;;;;;;4930556;29;20517;-80
2023/11/12 00:53:51;;;;;;;7.53;7.20;;;7.10;1.00;;;;;;4940171;28;20477;-81
2023/11/12 00:56:19;;;;;;;6.50;6.30;;;7.10;1.00;;;;;;4930752;29;20486;-79
2023/11/12 00:58:49;;;;;;;7.10;6.90;;;7.10;1.00;;;;;;4929437;29;20512;-81
2023/11/12 01:01:18;;;;;;;9.07;8.27;;;7.10;1.00;;;;;;4926357;29;20461;-78
2023/11/12 01:03:46;;;;;;;6.83;6.63;;;7.10;1.00;;;;;;4927189;29;20458;-79
2023/11/12 01:06:14;;;;;;;10.90;9.90;;;7.10;1.00;;;;;;4927171;29;20529;-79
2023/11/12 01:08:43;;;;;;;7.73;7.30;;;7.10;1.00;;;;;;4929394;29;20522;-79
2023/11/12 01:11:11;;;;;;;6.80;6.60;;;7.10;1.00;;;;;;4927545;29;20824;-80
2023/11/12 01:13:39;;;;;;;7.77;7.47;;;7.10;1.00;;;;;;4928278;29;20896;-78
2023/11/12 01:16:09;;;;;;;6.87;6.67;;;7.10;1.00;;;;;;4926072;29;20481;-78
2023/11/12 01:18:40;;;;;;;7.43;7.20;;;7.10;1.00;;;;;;4925697;29;20461;-80
2023/11/12 01:21:09;;;;;;;7.17;6.97;;;7.20;1.00;;;;;;4925215;29;20809;-79
2023/11/12 01:23:38;;;;;;;7.30;7.00;;;7.10;1.00;;;;;;4922024;29;20452;-79
2023/11/12 01:26:06;;;;;;;6.60;6.40;;;7.10;1.00;;;;;;4927857;29;21093;-80
2023/11/12 01:28:34;;;;;;;6.63;6.50;;;7.20;1.00;;;;;;4929507;29;20513;-79
2023/11/12 01:31:03;;;;;;;6.90;6.70;;;7.20;1.00;;;;;;4925470;29;20461;-79
2023/11/12 01:33:32;;;;;;;6.57;6.47;;;7.20;1.00;;;;;;4925051;29;20536;-78
2023/11/12 01:36:01;;;;;;;7.23;7.00;;;7.20;1.00;;;;;;4926380;29;20458;-80
2023/11/12 01:38:30;;;;;;;6.97;6.67;;;7.20;1.00;;;;;;4926629;29;20446;-79
2023/11/12 01:41:02;;;;;;;7.77;7.37;;;7.20;1.00;;;;;;4924713;29;20462;-80
2023/11/12 01:43:31;;;;;;;7.53;7.10;;;7.20;1.00;;;;;;4926410;29;20914;-80
2023/11/12 01:46:04;;;;;;;7.40;7.10;;;7.20;1.00;;;;;;4927612;29;20471;-79
2023/11/12 01:48:34;;;;;;;8.37;8.00;;;7.20;1.00;;;;;;4925607;29;20490;-79
2023/11/12 01:51:04;;;;;;;7.87;7.40;;;7.20;1.00;;;;;;4929481;29;20458;-80
2023/11/12 01:53:35;;;;;;;9.50;8.80;;;7.20;1.00;;;;;;4925035;29;20454;-80
2023/11/12 01:56:08;;;;;;;7.40;7.20;;;7.10;1.00;;;;;;4923860;29;20454;-79
2023/11/12 01:58:37;;;;;;;8.50;7.87;;;7.20;1.00;;;;;;4929962;29;20458;-79
2023/11/12 02:01:05;;;;;;;8.17;7.73;;;7.20;1.00;;;;;;4928440;28;20449;-81
2023/11/12 02:03:37;;;;;;;7.30;6.80;;;7.20;1.00;;;;;;4926657;29;20467;-81
2023/11/12 02:06:06;;;;;;;6.73;6.43;;;7.20;1.00;;;;;;4923696;29;20465;-78
2023/11/12 02:08:36;;;;;;;7.00;6.80;;;7.20;1.00;;;;;;4920484;29;20632;-79
2023/11/12 02:11:07;;;;;;;7.10;6.70;;;7.20;1.00;;;;;;4924498;29;20469;-79
2023/11/12 02:13:36;;;;;;;6.80;6.67;;;7.20;1.00;;;;;;4923584;29;20465;-79
2023/11/12 02:16:06;;;;;;;6.80;6.60;;;7.20;1.00;;;;;;4924252;29;20476;-78
2023/11/12 02:18:36;;;;;;;6.77;6.60;;;7.10;1.00;;;;;;4927350;29;20449;-80
2023/11/12 02:21:04;;;;;;;16.43;14.90;;;7.20;1.00;;;;;;4925090;29;20462;-80
2023/11/12 02:23:37;;;;;;;8.60;8.27;;;7.20;1.00;;;;;;4924075;29;20472;-81
2023/11/12 02:26:05;;;;;;;7.30;6.90;;;7.20;1.00;;;;;;4921660;29;20453;-80
2023/11/12 02:28:34;;;;;;;7.03;6.90;;;7.20;1.00;;;;;;4916850;29;20474;-79
2023/11/12 02:31:03;;;;;;;6.30;6.20;;;7.30;1.00;;;;;;4925626;29;20556;-81
2023/11/12 02:33:32;;;;;;;6.83;6.63;;;7.20;1.00;;;;;;4923110;29;20453;-79
2023/11/12 02:36:00;;;;;;;6.90;6.70;;;7.20;1.00;;;;;;4923749;29;20476;-82
2023/11/12 02:38:29;;;;;;;6.80;6.70;;;7.20;1.00;;;;;;4927060;29;21095;-79
2023/11/12 02:41:01;;;;;;;6.60;6.50;;;7.20;1.00;;;;;;4922257;29;21038;-79
2023/11/12 02:43:29;;;;;;;7.33;6.97;;;7.10;1.00;;;;;;4921060;29;20843;-79
2023/11/12 02:45:57;;;;;;;6.77;6.57;;;7.10;1.00;;;;;;4927843;29;20457;-79
2023/11/12 02:48:29;;;;;;;6.50;6.40;;;7.00;1.00;;;;;;4922856;29;20513;-81
2023/11/12 02:50:58;;;;;;;6.80;6.60;;;7.00;1.00;;;;;;4928950;29;20493;-80
2023/11/12 02:53:26;;;;;;;6.50;6.20;;;6.90;1.00;;;;;;4924237;29;20549;-78
2023/11/12 02:55:54;;;;;;;6.60;6.30;;;6.80;1.00;;;;;;4924794;29;20462;-79
2023/11/12 02:58:24;;;;;;;6.77;6.57;;;6.80;1.00;;;;;;4926021;29;20457;-80
2023/11/12 03:00:53;;;;;;;6.93;6.73;;;6.80;1.00;;;;;;4924107;29;20544;-79
2023/11/12 03:03:21;;;;;;;7.17;6.83;;;6.80;1.00;;;;;;4923197;29;20462;-80
2023/11/12 03:05:49;;;;;;;7.33;6.77;;;6.80;1.00;;;;;;4919509;29;20474;-80
2023/11/12 03:08:17;;;;;;;6.37;6.27;;;6.80;1.00;;;;;;4922044;29;20484;-80
2023/11/12 03:10:46;;;;;;;6.90;6.60;;;6.70;1.00;;;;;;4922676;29;20461;-80
2023/11/12 03:13:14;;;;;;;6.70;6.50;;;6.70;1.00;;;;;;4922424;29;20994;-79
2023/11/12 03:15:43;;;;;;;6.60;6.50;;;6.70;1.00;;;;;;4921509;29;21017;-82
2023/11/12 03:18:12;;;;;;;6.77;6.63;;;6.70;1.00;;;;;;4921574;29;20552;-79
2023/11/12 03:20:40;;;;;;;6.27;6.17;;;6.70;1.00;;;;;;4922915;29;20478;-80
2023/11/12 03:23:08;;;;;;;6.63;6.53;;;6.70;1.00;;;;;;4926337;29;20464;-81
2023/11/12 03:25:36;;;;;;;6.77;6.60;;;6.70;1.00;;;;;;4923108;29;20457;-80
2023/11/12 03:28:04;;;;;;;6.40;6.20;;;6.70;1.00;;;;;;4919781;29;20500;-80
2023/11/12 03:30:33;;;;;;;7.17;6.77;;;6.60;1.00;;;;;;4921165;29;20818;-80
2023/11/12 03:33:02;;;;;;;6.10;6.00;;;6.60;1.00;;;;;;4924330;29;20525;-79
2023/11/12 03:35:30;;;;;;;6.70;6.30;;;6.70;1.00;;;;;;4922390;29;20516;-79
2023/11/12 03:37:59;;;;;;;6.50;6.40;;;6.60;1.00;;;;;;4925551;29;20499;-78
2023/11/12 03:40:27;;;;;;;6.33;6.13;;;6.60;1.00;;;;;;4926587;29;20453;-79
2023/11/12 03:42:55;;;;;;;6.60;6.40;;;6.50;1.00;;;;;;4925071;29;20464;-78
2023/11/12 03:45:23;;;;;;;6.77;6.40;;;6.40;1.00;;;;;;4922959;29;20474;-80
2023/11/12 03:47:52;;;;;;;6.00;5.90;;;6.40;1.00;;;;;;4921473;29;20497;-78
2023/11/12 03:50:21;;;;;;;6.27;6.07;;;6.40;1.00;;;;;;4921481;29;20990;-79
2023/11/12 03:52:49;;;;;;;6.57;6.37;;;6.40;1.00;;;;;;4926333;29;20466;-79
2023/11/12 03:55:17;;;;;;;6.13;6.03;;;6.40;1.00;;;;;;4920802;29;20453;-80
2023/11/12 03:57:46;;;;;;;6.33;6.13;;;6.30;1.00;;;;;;4922808;29;20473;-78
2023/11/12 04:00:14;;;;;;;6.30;6.20;;;6.30;1.00;;;;;;4923892;29;20465;-79
2023/11/12 04:02:43;;;;;;;6.70;6.50;;;6.20;1.00;;;;;;4921708;29;20463;-79
2023/11/12 04:05:11;;;;;;;6.80;6.50;;;6.20;1.00;;;;;;4924493;29;20465;-81
2023/11/12 04:07:41;;;;;;;6.33;6.13;;;6.20;1.00;;;;;;4925399;29;20497;-78
2023/11/12 04:10:13;;;;;;;6.70;6.50;;;6.20;1.00;;;;;;4926514;29;21159;-81
2023/11/12 04:12:41;;;;;;;6.80;6.60;;;6.30;1.00;;;;;;4927765;29;20914;-79
2023/11/12 04:15:10;;;;;;;7.00;6.70;;;6.20;1.00;;;;;;4927046;29;20538;-80
2023/11/12 04:17:38;;;;;;;7.00;6.70;;;6.20;1.00;;;;;;4924289;29;20541;-79
2023/11/12 04:20:08;;;;;;;6.97;6.37;;;6.10;1.00;;;;;;4924303;29;20540;-82
2023/11/12 04:22:37;;;;;;;6.20;6.00;;;6.20;1.00;;;;;;4920722;29;20971;-78
2023/11/12 04:25:07;;;;;;;6.87;6.50;;;6.20;1.00;;;;;;4927347;29;20476;-80
2023/11/12 04:27:37;;;;;;;6.07;5.97;;;6.20;1.00;;;;;;4926425;29;20465;-80
2023/11/12 04:30:07;;;;;;;6.80;6.60;;;6.20;1.00;;;;;;4923556;29;20816;-80
2023/11/12 04:32:36;;;;;;;6.47;6.20;;;6.30;1.00;;;;;;4925904;29;20528;-81
2023/11/12 04:35:06;;;;;;;6.40;6.10;;;6.30;1.00;;;;;;4925081;29;20484;-79
2023/11/12 04:37:34;;;;;;;6.67;6.30;;;6.30;1.00;;;;;;4924227;29;20532;-79
2023/11/12 04:40:03;;;;;;;6.07;5.87;;;6.20;1.00;;;;;;4926473;29;20485;-78
2023/11/12 04:42:33;;;;;;;6.50;6.30;;;6.20;1.00;;;;;;4919075;29;20489;-79
2023/11/12 04:45:02;;;;;;;6.20;6.10;;;6.20;1.00;;;;;;4922117;29;20450;-79
2023/11/12 04:47:30;;;;;;;6.67;6.47;;;6.30;1.00;;;;;;4920474;29;20563;-80
2023/11/12 04:49:59;;;;;;;6.30;6.20;;;6.20;1.00;;;;;;4918341;29;20584;-80
2023/11/12 04:52:27;;;;;;;6.57;6.37;;;6.20;1.00;;;;;;4921885;29;20462;-79
2023/11/12 04:54:55;;;;;;;6.60;6.40;;;6.30;1.00;;;;;;4923436;29;20465;-79
2023/11/12 04:57:24;;;;;;;6.20;6.00;;;6.30;1.00;;;;;;4923757;29;20473;-79
2023/11/12 04:59:53;;;;;;;6.00;5.90;;;6.40;1.00;;;;;;4930257;29;20871;-81
2023/11/12 05:02:21;;;;;;;7.63;7.40;;;6.30;1.00;;;;;;4925108;29;20545;-80
2023/11/12 05:04:49;;;;;;;6.70;6.50;;;6.40;1.00;;;;;;4928634;29;21105;-81
2023/11/12 05:07:18;;;;;;;6.50;6.40;;;6.40;1.00;;;;;;4927712;29;20492;-78
2023/11/12 05:09:46;;;;;;;6.30;6.10;;;6.40;1.00;;;;;;4928415;29;20496;-79
2023/11/12 05:12:15;;;;;;;6.50;6.40;;;6.40;1.00;;;;;;4925317;29;20502;-80
2023/11/12 05:14:43;;;;;;;6.70;6.50;;;6.40;1.00;;;;;;4927946;29;20545;-79
2023/11/12 05:17:13;;;;;;;6.60;6.40;;;6.30;1.00;;;;;;4922334;29;20528;-79
2023/11/12 05:19:41;;;;;;;6.60;6.50;;;6.30;1.00;;;;;;4924252;29;20473;-79
2023/11/12 05:22:09;;;;;;;6.20;6.00;;;6.30;1.00;;;;;;4922589;29;20458;-82
2023/11/12 05:24:38;;;;;;;6.30;6.03;;;6.30;1.00;;;;;;4922191;29;20496;-79
2023/11/12 05:27:06;;;;;;;6.37;6.20;;;6.20;1.00;;;;;;4926850;29;20469;-79
2023/11/12 05:29:34;;;;;;;6.70;6.60;;;6.20;1.00;;;;;;4928262;29;20470;-83
2023/11/12 05:32:03;;;;;;;6.20;6.10;;;6.10;1.00;;;;;;4925472;29;21070;-80
2023/11/12 05:34:33;;;;;;;6.63;6.43;;;6.10;1.00;;;;;;4927502;29;20465;-79
2023/11/12 05:37:01;;;;;;;6.23;6.03;;;6.10;1.00;;;;;;4926310;29;20999;-80
2023/11/12 05:39:29;;;;;;;6.10;6.00;;;6.10;1.00;;;;;;4928308;29;20465;-80
2023/11/12 05:41:57;;;;;;;6.93;6.63;;;6.10;1.00;;;;;;4924148;29;20466;-79
2023/11/12 05:44:25;;;;;;;6.40;6.30;;;6.10;1.00;;;;;;4927463;29;20456;-79
2023/11/12 05:46:53;;;;;;;6.60;6.30;;;6.10;1.00;;;;;;4925218;29;20463;-80
2023/11/12 05:49:22;;;;;;;6.73;6.43;;;6.00;1.00;;;;;;4926397;29;20454;-80
2023/11/12 05:51:51;;;;;;;6.70;6.27;;;6.00;1.00;;;;;;4928683;29;20460;-80
2023/11/12 05:54:19;;;;;;;7.03;6.83;;;6.00;1.00;;;;;;4926738;29;20508;-80
2023/11/12 05:56:48;;;;;;;6.60;6.30;;;6.00;1.00;;;;;;4921781;29;20549;-81
2023/11/12 05:59:16;;;;;;;6.43;6.27;;;6.00;1.00;;;;;;4926135;29;20477;-80
2023/11/12 06:01:44;;;;;;;6.70;6.50;;;5.90;1.00;;;;;;4923347;29;20541;-81
2023/11/12 06:04:12;;;;;;;6.60;6.50;;;5.90;1.00;;;;;;4929696;29;20548;-78
2023/11/12 06:06:41;;;;;;;6.40;6.13;;;6.00;1.00;;;;;;4920485;29;20481;-80
2023/11/12 06:09:11;;;;;;;6.00;5.90;;;6.00;1.00;;;;;;4927640;29;21096;-79
2023/11/12 06:11:40;;;;;;;6.40;6.10;;;5.90;1.00;;;;;;4925579;29;21197;-80
2023/11/12 06:14:08;;;;;;;6.50;6.20;;;5.90;1.00;;;;;;4928636;29;20457;-79
2023/11/12 06:16:37;;;;;;;6.40;6.20;;;5.90;1.00;;;;;;4923850;29;21156;-79
2023/11/12 06:19:05;;;;;;;6.30;6.10;;;5.90;1.00;;;;;;4926477;29;20475;-79
2023/11/12 06:21:33;;;;;;;6.53;6.27;;;5.90;1.00;;;;;;4922839;29;20450;-78
2023/11/12 06:24:01;;;;;;;6.20;6.00;;;5.80;1.00;;;;;;4923819;29;20562;-78
2023/11/12 06:26:31;;;;;;;6.43;6.23;;;5.90;1.00;;;;;;4924492;29;20485;-80
2023/11/12 06:28:59;;;;;;;6.83;6.53;;;5.90;1.00;;;;;;4925551;29;20469;-79
2023/11/12 06:31:27;;;;;;;6.70;6.43;;;5.90;1.00;;;;;;4923052;29;20488;-79
2023/11/12 06:33:55;;;;;;;6.63;6.43;;;5.90;1.00;;;;;;4925769;29;20460;-79
2023/11/12 06:36:23;;;;;;;6.60;6.23;;;5.80;1.00;;;;;;4923053;29;20485;-79
2023/11/12 06:38:51;;;;;;;7.40;7.00;;;5.80;1.00;;;;;;4923219;29;20450;-81
2023/11/12 06:41:23;;;;;;;6.90;6.70;;;5.80;1.00;;;;;;4922983;29;20450;-80
2023/11/12 06:43:52;;;;;;;7.17;6.97;;;5.90;1.00;;;;;;4925869;29;20462;-79
2023/11/12 06:46:21;;;;;;;7.10;6.80;;;5.90;1.00;;;;;;4924472;29;20477;-80
2023/11/12 06:48:49;;;;;;;6.93;6.73;;;5.90;1.00;;;;;;4925573;29;20499;-82
2023/11/12 06:51:24;;;;;;;6.57;6.27;;;5.90;1.00;;;;;;4926166;29;20481;-80
2023/11/12 06:53:53;;;;;;;7.47;7.07;;;5.90;1.00;;;;;;4914676;29;20465;-80
2023/11/12 06:56:23;;;;;;;6.77;6.57;;;5.90;1.00;;;;;;4922224;29;20541;-78
2023/11/12 06:58:53;;;;;;;6.93;6.63;;;5.90;1.00;;;;;;4924190;29;20473;-79
2023/11/12 07:01:21;;;;;;;6.70;6.50;;;5.90;1.00;;;;;;4921834;29;20450;-80
2023/11/12 07:03:49;;;;;;;6.63;6.43;;;5.90;1.00;;;;;;4922018;29;20481;-80
2023/11/12 07:06:17;;;;;;;6.77;6.57;;;5.90;1.00;;;;;;4921531;29;20476;-80
2023/11/12 07:08:45;;;;;;;7.10;6.80;;;5.90;1.00;;;;;;4922007;29;20469;-81
2023/11/12 07:11:13;;;;;;;7.23;6.93;;;5.90;1.00;;;;;;4926986;29;20478;-82
2023/11/12 07:13:41;;;;;;;7.17;6.87;;;6.00;1.00;;;;;;4924221;29;20462;-82
2023/11/12 07:16:17;;;;;;;6.53;6.23;;;6.00;1.00;;;;;;4922866;29;20474;-82
2023/11/12 07:18:46;;;;;;;6.57;6.33;;;5.80;1.00;;;;;;4922385;29;20458;-81
2023/11/12 07:21:24;;;;;;;6.60;6.30;;;5.90;1.00;;;;;;4925108;28;20458;-82
2023/11/12 07:23:52;;;;;;;6.60;6.40;;;6.00;1.00;;;;;;4923885;29;20462;-82
2023/11/12 07:26:21;;;;;;;7.20;6.90;;;6.00;1.00;;;;;;4922364;29;20461;-82
2023/11/12 07:28:49;;;;;;;7.40;7.20;;;6.00;1.00;;;;;;4926023;29;20497;-79
2023/11/12 07:31:20;;;;;;;7.30;6.83;;;6.10;1.00;;;;;;4922946;29;20481;-81
2023/11/12 07:33:48;;;;;;;6.80;6.60;;;6.10;1.00;;;;;;4922766;29;22397;-78
2023/11/12 07:36:16;;;;;;;8.00;7.70;;;6.10;1.00;;;;;;4920421;29;20493;-80
2023/11/12 07:38:44;;;;;;;6.83;6.50;;;6.20;1.00;;;;;;4924250;29;20465;-81
2023/11/12 07:41:12;;;;;;;7.03;6.83;;;6.10;1.00;;;;;;4923852;29;20468;-79
2023/11/12 07:43:40;;;;;;;6.77;6.57;;;6.20;1.00;;;;;;4922178;29;20457;-78
2023/11/12 07:46:08;;;;;;;8.30;8.00;;;6.20;1.00;;;;;;4926583;29;20534;-80
2023/11/12 07:48:38;;;;;;;6.97;6.77;;;6.10;1.00;;;;;;4922527;29;20454;-79
2023/11/12 07:51:07;;;;;;;7.53;7.13;;;6.20;1.00;;;;;;4922981;29;20580;-81
2023/11/12 07:53:36;;;;;;;7.90;7.60;;;6.20;1.00;;;;;;4921611;29;20461;-80
2023/11/12 07:56:06;;;;;;;7.83;7.50;;;6.20;1.00;;;;;;4921908;29;20465;-80
2023/11/12 07:58:35;;;;;;;7.77;7.47;;;6.20;1.00;;;;;;4920056;29;20457;-79
2023/11/12 08:01:03;;;;;;;7.40;7.10;;;6.20;1.00;;;;;;4919296;29;20545;-82
2023/11/12 08:03:32;;;;;;;8.37;7.87;;;6.30;1.00;;;;;;4919237;29;20472;-80
2023/11/12 08:06:03;;;;;;;36.87;29.20;;;6.30;1.00;;;;;;4920123;29;20458;-80
2023/11/12 08:08:32;;;;;;;18.50;16.70;;;6.40;1.00;;;;;;4924018;29;20469;-81
2023/11/12 08:11:00;;;;;;;9.90;9.40;;;6.30;1.00;;;;;;4924136;29;20469;-80
2023/11/12 08:13:28;;;;;;;12.70;11.63;;;6.30;1.00;;;;;;4923870;29;20523;-79
2023/11/12 08:15:57;;;;;;;7.23;7.03;;;6.30;1.00;;;;;;4924529;29;20465;-82
2023/11/12 08:18:25;;;;;;;38.50;24.47;;;6.30;1.00;;;;;;4925374;29;20466;-80
2023/11/12 08:20:54;;;;;;;10.30;9.50;;;6.30;1.00;;;;;;4920075;29;20498;-82
2023/11/12 08:23:24;;;;;;;10.30;9.50;;;6.30;1.00;;;;;;4924297;29;20466;-81
2023/11/12 08:25:53;;;;;;;9.73;9.13;;;6.40;1.00;;;;;;4921395;29;20517;-80
2023/11/12 08:28:24;;;;;;;7.80;7.50;;;6.50;1.00;;;;;;4918557;29;20462;-81
2023/11/12 08:30:52;;;;;;;7.40;7.00;;;6.50;1.00;;;;;;4921653;29;20569;-82
2023/11/12 08:33:20;;;;;;;7.87;7.37;;;6.50;1.00;;;;;;4926752;29;20464;-81
2023/11/12 08:35:48;;;;;;;10.03;9.47;;;6.60;1.00;;;;;;4925665;29;20548;-80
2023/11/12 08:38:16;;;;;;;12.80;11.80;;;6.70;1.00;;;;;;4922149;29;20527;-78
2023/11/12 08:40:46;;;;;;;7.20;6.90;;;6.80;1.00;;;;;;4923815;29;20449;-80
2023/11/12 08:43:14;;;;;;;6.93;6.73;;;6.90;1.00;;;;;;4925929;29;21232;-80
2023/11/12 08:45:43;;;;;;;8.73;8.33;;;7.00;1.00;;;;;;4922567;29;20461;-80
2023/11/12 08:48:11;;;;;;;8.10;7.80;;;7.10;1.00;;;;;;4918874;29;20496;-81
2023/11/12 08:50:39;;;;;;;7.33;7.13;;;7.10;1.00;;;;;;4926079;29;20461;-83
2023/11/12 08:53:07;;;;;;;7.37;7.07;;;7.20;99.90;;;;;;4925020;29;20849;-79
2023/11/12 08:55:35;;;;;;;7.90;7.60;;;7.10;99.90;;;;;;4926715;29;21033;-78
2023/11/12 08:58:05;;;;;;;8.70;8.30;;;7.10;99.90;;;;;;4923787;29;20485;-77
2023/11/12 09:00:33;;;;;;;6.83;6.57;;;7.10;99.90;;;;;;4928416;29;20461;-77
2023/11/12 09:03:01;;;;;;;6.67;6.47;;;7.30;99.90;;;;;;4933669;29;20812;-76
2023/11/12 09:05:29;;;;;;;8.33;7.93;;;7.30;99.90;;;;;;4924720;29;20623;-85
2023/11/12 09:08:01;;;;;;;6.20;6.10;;;7.30;99.90;;;;;;4933192;29;20845;-77
2023/11/12 09:10:29;;;;;;;7.47;7.07;;;7.40;99.90;;;;;;4926680;29;20457;-77
2023/11/12 09:12:57;;;;;;;7.20;6.90;;;7.40;99.90;;;;;;4931535;29;20497;-77
2023/11/12 09:15:27;;;;;;;7.63;7.33;;;7.50;99.90;;;;;;4929272;29;20462;-79
2023/11/12 09:17:55;;;;;;;8.10;7.80;;;7.40;99.90;;;;;;4929994;29;20520;-78
2023/11/12 09:20:23;;;;;;;7.23;6.93;;;7.30;99.90;;;;;;4939799;28;21017;-78
2023/11/12 09:22:51;;;;;;;10.57;9.70;;;7.20;99.90;;;;;;4931111;29;20457;-78
2023/11/12 09:25:20;;;;;;;16.17;14.73;;;7.20;99.90;;;;;;4919070;29;20458;-76
2023/11/12 09:27:48;;;;;;;16.43;14.27;;;7.30;99.90;;;;;;4928701;29;20466;-77
2023/11/12 09:30:17;;;;;;;9.47;8.77;;;7.40;99.90;;;;;;4932732;29;20465;-77
2023/11/12 09:32:46;;;;;;;7.20;7.00;;;7.50;99.90;;;;;;4931112;28;20513;-80
2023/11/12 09:35:15;;;;;;;7.50;7.30;;;7.60;99.90;;;;;;4924444;29;20451;-85
2023/11/12 09:37:43;;;;;;;8.43;7.80;;;7.60;99.90;;;;;;4925238;29;20482;-79
2023/11/12 09:40:12;;;;;;;7.60;7.30;;;7.60;99.90;;;;;;4931256;29;20468;-79
2023/11/12 09:42:47;;;;;;;7.90;7.70;;;7.60;99.90;;;;;;4930896;29;20453;-78
2023/11/12 09:45:15;;;;;;;7.70;7.30;;;7.60;99.90;;;;;;4927142;29;20523;-80
2023/11/12 09:47:53;;;;;;;7.60;7.20;;;7.60;99.90;;;;;;4924731;29;20462;-77
2023/11/12 09:50:21;;;;;;;8.07;7.57;;;7.60;99.90;;;;;;4920815;29;20463;-78
2023/11/12 09:52:51;;;;;;;8.27;7.97;;;7.60;99.90;;;;;;4926310;29;20497;-77
2023/11/12 09:55:20;;;;;;;7.40;7.00;;;7.60;99.90;;;;;;4928746;29;20468;-78
2023/11/12 09:57:51;;;;;;;8.67;8.27;;;7.60;99.90;;;;;;4926207;29;20489;-77
2023/11/12 10:00:20;;;;;;;9.83;9.37;;;7.70;99.90;;;;;;4931250;29;20487;-78
2023/11/12 10:02:49;;;;;;;28.33;20.43;;;7.80;99.90;;;;;;4924796;29;20450;-79
2023/11/12 10:05:18;;;;;;;12.57;11.47;;;7.60;99.90;;;;;;4929309;29;20921;-77
2023/11/12 10:07:46;;;;;;;10.00;9.40;;;7.70;99.90;;;;;;4931298;29;20481;-78
2023/11/12 10:10:22;;;;;;;8.20;7.90;;;7.80;99.90;;;;;;4924612;29;20470;-77
2023/11/12 10:12:52;;;;;;;7.90;7.50;;;7.80;99.90;;;;;;4927285;29;20572;-77
2023/11/12 10:15:24;;;;;;;8.13;7.73;;;7.70;99.90;;;;;;4926742;29;20951;-78
2023/11/12 10:17:55;;;;;;;7.73;7.53;;;7.70;99.90;;;;;;4928950;29;20482;-78
2023/11/12 10:20:30;;;;;;;7.60;7.30;;;7.60;99.90;;;;;;4925746;29;20438;-77
2023/11/12 10:22:59;;;;;;;7.50;7.20;;;7.60;99.90;;;;;;4925330;29;20971;-77
2023/11/12 10:25:41;;;;;;;8.30;7.87;;;7.60;99.90;;;;;;4930565;29;20552;-80
2023/11/12 10:28:11;;;;;;;8.73;8.43;;;7.60;99.90;;;;;;4933082;29;20548;-77
2023/11/12 10:30:40;;;;;;;8.47;8.07;;;7.50;99.90;;;;;;4926122;29;20449;-77
2023/11/12 10:33:23;;;;;;;8.40;8.10;;;7.60;99.90;;;;;;4932121;29;20484;-77
2023/11/12 10:35:51;;;;;;;8.50;8.17;;;7.60;99.90;;;;;;4925901;29;20458;-76
2023/11/12 10:38:20;;;;;;;7.77;7.47;;;7.60;99.90;;;;;;4929304;29;20486;-76
2023/11/12 10:41:00;;;;;;;7.87;7.47;;;7.60;99.90;;;;;;4932182;29;20461;-77
2023/11/12 10:43:29;;;;;;;8.30;7.90;;;7.60;99.90;;;;;;4923763;29;20457;-78
2023/11/12 10:46:00;;;;;;;7.90;7.60;;;7.50;99.90;;;;;;4927405;29;20460;-76
2023/11/12 10:48:33;;;;;;;7.60;7.10;;;7.50;99.90;;;;;;4926184;29;20475;-77
2023/11/12 10:51:04;;;;;;;7.43;7.20;;;7.40;99.90;;;;;;4929986;29;20551;-80
2023/11/12 10:53:33;;;;;;;7.10;6.90;;;7.40;99.90;;;;;;4925519;29;20528;-76
2023/11/12 10:56:03;;;;;;;7.57;7.27;;;7.40;99.90;;;;;;4927684;29;20520;-78
2023/11/12 10:58:32;;;;;;;7.73;7.33;;;7.50;99.90;;;;;;4931958;29;20465;-78
2023/11/12 11:01:03;;;;;;;6.27;6.07;;;7.50;99.90;;;;;;4929727;29;20518;-77
2023/11/12 11:03:34;;;;;;;7.33;7.10;;;7.50;99.90;;;;;;4926422;29;20451;-77
2023/11/12 11:06:05;;;;;;;7.80;7.60;;;7.60;99.90;;;;;;4928894;29;20476;-78
2023/11/12 11:08:34;;;;;;;8.57;8.17;;;7.60;99.90;;;;;;4925984;29;20529;-79
2023/11/12 11:11:03;;;;;;;7.57;7.27;;;7.60;99.90;;;;;;4926084;29;20510;-77
2023/11/12 11:13:37;;;;;;;8.97;8.27;;;7.60;99.90;;;;;;4924765;29;20470;-78
2023/11/12 11:16:07;;;;;;;9.13;8.53;;;7.60;99.90;;;;;;4918053;29;20453;-77
2023/11/12 11:18:53;;;;;;;8.10;7.90;;;7.70;99.90;;;;;;4923633;29;20530;-77
2023/11/12 11:21:21;;;;;;;8.30;7.90;;;7.60;99.90;;;;;;4930249;29;20449;-76
2023/11/12 11:23:52;;;;;;;8.27;7.87;;;7.70;99.90;;;;;;4924562;29;20526;-81
2023/11/12 11:26:33;;;;;;;8.47;7.97;;;7.80;99.90;;;;;;4925061;29;20548;-77
2023/11/12 11:29:19;;;;;;;8.30;8.00;;;7.80;99.90;;;;;;4926041;29;20457;-77
2023/11/12 11:32:18;;;;;;;8.13;7.73;;;7.90;99.90;;;;;;4931555;29;20469;-77
2023/11/12 11:34:48;;;;;;;8.47;8.17;;;8.00;99.90;;;;;;4926424;29;20451;-77
2023/11/12 11:37:19;;;;;;;9.30;8.90;;;8.10;99.90;;;;;;4920950;29;20474;-75
2023/11/12 11:39:47;;;;;;;9.17;8.77;;;8.10;99.90;;;;;;4928363;29;20480;-76
2023/11/12 11:42:17;;;;;;;8.13;7.80;;;8.20;99.90;;;;;;4928512;29;20465;-83
2023/11/12 11:44:45;;;;;;;8.27;7.97;;;8.30;99.90;;;;;;4928143;29;20944;-82
2023/11/12 11:47:16;;;;;;;7.53;7.23;;;8.40;99.90;;;;;;4925359;29;20473;-76
2023/11/12 11:49:47;;;;;;;9.13;8.70;;;8.40;99.90;;;;;;4926515;28;20457;-76
2023/11/12 11:52:24;;;;;;;8.13;7.83;;;8.40;99.90;;;;;;4923974;29;20451;-79
2023/11/12 11:55:02;;;;;;;8.10;7.80;;;8.40;99.90;;;;;;4927571;29;20482;-79
2023/11/12 11:57:31;;;;;;;10.00;9.40;;;8.50;99.90;;;;;;4931709;29;20535;-80
2023/11/12 12:00:01;;;;;;;8.00;7.80;;;8.50;99.90;;;;;;4930274;29;20461;-79
2023/11/12 12:02:29;;;;;;;7.90;7.60;;;8.50;99.90;;;;;;4939885;28;20457;-78
2023/11/12 12:04:59;;;;;;;8.40;8.17;;;8.40;99.90;;;;;;4931459;29;20480;-77
2023/11/12 12:07:29;;;;;;;8.30;8.03;;;8.40;99.90;;;;;;4923307;29;20485;-77
2023/11/12 12:09:59;;;;;;;8.77;8.47;;;8.40;99.90;;;;;;4926260;29;20458;-78
2023/11/12 12:12:29;;;;;;;8.80;8.40;;;8.30;99.90;;;;;;4926129;29;20474;-79
2023/11/12 12:14:57;;;;;;;9.53;9.13;;;8.40;99.90;;;;;;4921226;29;20720;-78
2023/11/12 12:17:25;;;;;;;8.50;8.20;;;8.40;99.90;;;;;;4921983;29;20462;-80
2023/11/12 12:19:54;;;;;;;8.80;8.50;;;8.40;99.90;;;;;;4927493;29;20482;-78
2023/11/12 12:22:24;;;;;;;8.73;8.27;;;8.40;99.90;;;;;;4926922;29;20462;-78
2023/11/12 12:24:57;;;;;;;9.10;8.80;;;8.50;99.90;;;;;;4925787;29;20447;-77
2023/11/12 12:27:26;;;;;;;8.93;8.57;;;8.50;99.90;;;;;;4928674;29;20524;-77
2023/11/12 12:29:55;;;;;;;8.80;8.50;;;8.50;99.90;;;;;;4922156;29;20473;-77
2023/11/12 12:32:24;;;;;;;8.90;8.50;;;8.50;99.90;;;;;;4927343;29;20464;-79
2023/11/12 12:34:58;;;;;;;8.93;8.60;;;8.50;99.90;;;;;;4930777;29;20509;-80
2023/11/12 12:37:30;;;;;;;8.57;8.27;;;8.40;99.90;;;;;;4926004;29;21069;-80
2023/11/12 12:40:00;;;;;;;9.60;9.00;;;8.40;99.90;;;;;;4930584;29;20460;-78
2023/11/12 12:42:30;;;;;;;9.03;8.63;;;8.40;99.90;;;;;;4933001;29;20454;-76
2023/11/12 12:44:59;;;;;;;9.50;9.00;;;8.40;99.90;;;;;;4932193;29;20449;-78
2023/11/12 12:47:33;;;;;;;8.40;8.03;;;8.40;99.90;;;;;;4932360;29;20540;-78
2023/11/12 12:50:16;;;;;;;9.17;8.70;;;8.40;99.90;;;;;;4930340;29;20444;-77
2023/11/12 12:52:47;;;;;;;8.60;8.30;;;8.40;99.90;;;;;;4923582;29;21273;-80
2023/11/12 12:55:16;;;;;;;8.73;8.33;;;8.30;99.90;;;;;;4923535;29;20489;-78
2023/11/12 12:57:47;;;;;;;8.10;7.70;;;8.40;99.90;;;;;;4929256;29;20568;-79
2023/11/12 13:00:17;;;;;;;7.90;7.60;;;8.30;99.90;;;;;;4926567;29;20593;-76
2023/11/12 13:02:46;;;;;;;8.63;8.23;;;8.20;99.90;;;;;;4923734;28;20457;-77
2023/11/12 13:05:19;;;;;;;8.47;8.17;;;8.20;99.90;;;;;;4928770;29;20477;-83
2023/11/12 13:07:50;;;;;;;8.40;8.10;;;8.20;99.90;;;;;;4926874;29;20588;-78
2023/11/12 13:10:21;;;;;;;7.93;7.53;;;8.30;99.90;;;;;;4928514;29;20458;-80
2023/11/12 13:12:51;;;;;;;7.40;7.20;;;8.30;99.90;;;;;;4927574;29;20526;-79
2023/11/12 13:15:21;;;;;;;7.27;7.00;;;8.20;99.90;;;;;;4925822;29;20474;-84